• Join FlightAware (Why Join?)
  • Login
  • US Flag 
07:14PM EDT


 

Airport Tracker/Info


-or-


 

Live Flight TrackerFlight Track Log ✈ EZY2759 ✈ 19-Apr-2013 ✈ LIMC / MXP - LEBL / BCN

Flight Track Log - Related Links

Times and Time Zones

All times are in EDT time to prevent confusion due to time zone crossing. See the EZY2759 flight status page for this flight to view local times or setup timezone preferences in your user account.

Time Position Orientation Groundspeed Altitude Reporting Facility
EDT Latitude Longitude Course Direction KTS MPH feet Rate Location/Type
12:45AM 45.2892 8.1439 230° Southwest  Level Estimated
12:46AM 45.2402 8.0610 230° Southwest  Level Estimated
12:47AM 45.1911 7.9782 230° Southwest  Level Estimated
12:48AM 45.1419 7.8956 230° Southwest  Level Estimated
12:49AM 45.0927 7.8131 230° Southwest  Level Estimated
12:50AM 45.0435 7.7308 230° Southwest  Level Estimated
12:51AM 44.9941 7.6487 230° Southwest  Level Estimated
12:52AM 44.9448 7.5666 230° Southwest  Level Estimated
12:53AM 44.8954 7.4847 230° Southwest  Level Estimated
12:54AM 44.8459 7.4029 230° Southwest  Level Estimated
12:55AM 44.7963 7.3213 229° Southwest  Level Estimated
12:56AM 44.7467 7.2399 229° Southwest  Level Estimated
12:57AM 44.6970 7.1585 229° Southwest  Level Estimated
12:58AM 44.6473 7.0773 229° Southwest  Level Estimated
12:59AM 44.5909 6.9855 229° Southwest  Level Estimated
01:00AM 44.5344 6.8938 229° Southwest  Level Estimated
01:01AM 44.4778 6.8023 229° Southwest  Level Estimated
01:02AM 44.4212 6.7110 229° Southwest  Level Estimated
01:03AM 44.3645 6.6198 229° Southwest  Level Estimated
01:04AM 44.3077 6.5289 229° Southwest  Level Estimated
01:05AM 44.2508 6.4381 229° Southwest  Level Estimated
01:06AM 44.1939 6.3474 229° Southwest  Level Estimated
01:07AM 44.1369 6.2570 229° Southwest  Level Estimated
01:08AM 44.0798 6.1667 229° Southwest  Level Estimated
01:09AM 44.0227 6.0766 229° Southwest  Level Estimated
01:10AM 43.9655 5.9867 229° Southwest  Level Estimated
01:11AM 43.9082 5.8970 228° Southwest  Level Estimated
01:12AM 43.8508 5.8074 228° Southwest  Level Estimated
01:13AM 43.7934 5.7180 228° Southwest  Level Estimated
01:14AM 43.7359 5.6288 228° Southwest  Level Estimated
01:15AM 43.6783 5.5397 228° Southwest  Level Estimated
01:16AM 43.6207 5.4508 228° Southwest  Level Estimated
01:17AM 43.5630 5.3621 228° Southwest  Level Estimated
01:18AM 43.5052 5.2736 228° Southwest  Level Estimated
01:19AM 43.4474 5.1852 228° Southwest  Level Estimated
01:20AM 43.3895 5.0970 228° Southwest  Level Estimated
01:21AM 43.3315 5.0089 228° Southwest  Level Estimated
01:22AM 43.2735 4.9211 228° Southwest  Level Estimated
01:23AM 43.2154 4.8334 228° Southwest  Level Estimated
01:24AM 43.1572 4.7458 228° Southwest  Level Estimated
01:25AM 43.0989 4.6585 228° Southwest  Level Estimated
01:26AM 43.0406 4.5712 228° Southwest  Level Estimated
01:27AM 42.9822 4.4842 228° Southwest  Level Estimated
01:28AM 42.9238 4.3973 227° Southwest  Level Estimated
01:29AM 42.8653 4.3106 227° Southwest  Level Estimated
01:30AM 42.8067 4.2241 227° Southwest  Level Estimated
01:31AM 42.7481 4.1377 227° Southwest  Level Estimated
01:32AM 42.6894 4.0515 227° Southwest  Level Estimated
01:33AM 42.6306 3.9654 227° Southwest  Level Estimated
01:34AM 42.5718 3.8795 227° Southwest  Level Estimated
01:35AM 42.5129 3.7938 227° Southwest  Level Estimated
01:36AM 42.4539 3.7083 227° Southwest  Level Estimated
01:37AM 42.3949 3.6228 227° Southwest  Level Estimated
01:38AM 42.3358 3.5376 227° Southwest  Level Estimated
01:39AM 42.2767 3.4525 227° Southwest  Level Estimated
01:40AM 42.2190 3.3698 227° Southwest  Level Estimated
01:41AM 42.1613 3.2872 227° Southwest  Level Estimated
01:42AM 42.1035 3.2048 227° Southwest  Level Estimated
01:43AM 42.0456 3.1225 227° Southwest  Level Estimated
01:44AM 41.9877 3.0404 227° Southwest  Level Estimated
01:45AM 41.9297 2.9584 226° Southwest  Level Estimated
01:46AM 41.8717 2.8766 226° Southwest  Level Estimated
01:47AM 41.8136 2.7949 226° Southwest  Level Estimated
01:48AM 41.7555 2.7134 226° Southwest  Level Estimated
01:49AM 41.6973 2.6320 226° Southwest  Level Estimated
01:50AM 41.6390 2.5508 226° Southwest  Level Estimated
01:51AM 41.5807 2.4697 226° Southwest  Level Estimated
01:52AM 41.5224 2.3888 226° Southwest  Level Estimated
01:53AM 41.4639 2.3080 226° Southwest  Level Estimated
01:54AM 41.4055 2.2273 226° Southwest  Level Estimated
01:55AM 41.3469 2.1468 226° Southwest  Level Estimated
01:56AM 41.2971 2.0785 226° Southwest  Level Estimated
01:57AM 41.2971 2.0785 124° Southeast  Level Estimated
01:58AM 41.2971 2.0785 124° Southeast  Level Estimated
01:59AM 41.2971 2.0785 124° Southeast  Level Estimated
02:00AM 41.2971 2.0785 124° Southeast  Level Estimated
02:01AM 41.2971 2.0785 124° Southeast  Level Estimated
02:02AM 41.2971 2.0785 124° Southeast  Level Estimated
02:03AM 41.2971 2.0785 124° Southeast  Level Estimated
02:04AM 41.2971 2.0785 124° Southeast  Level Estimated
02:05AM 41.2971 2.0785 124° Southeast  Level Estimated
02:06AM 41.2971 2.0785 124° Southeast  Level Estimated
02:07AM 41.2971 2.0785 124° Southeast  Level Estimated
02:08AM 41.2971 2.0785 124° Southeast  Level Estimated